Time;durP1;ratioP1;P1;durP2;ratioP2;P2;SDS_P1;SDS_P2;PMS_P1;PMS_P2;Temp;Humidity;BMP_temperature;BMP_pressure;BME280_temperature;BME280_humidity;BME280_pressure;Samples;Min_cycle;Max_cycle;Signal;HPM_P1;HPM_P2
2022/05/03 00:00:07;;;;;;;31.73;23.13;;;;;;;;;;5017938;28;20029;-64
2022/05/03 00:02:35;;;;;;;36.38;23.38;;;;;;;;;;5002101;28;20095;-64
2022/05/03 00:05:07;;;;;;;32.40;22.10;;;;;;;;;;5002065;28;20415;-64
2022/05/03 00:07:32;;;;;;;32.00;22.10;;;;;;;;;;5002245;28;20039;-64
2022/05/03 00:10:07;;;;;;;33.92;22.77;;;;;;;;;;5002399;28;20621;-63
2022/05/03 00:12:40;;;;;;;36.22;23.30;;;;;;;;;;5000144;28;20041;-65
2022/05/03 00:15:06;;;;;;;33.95;21.92;;;;;;;;;;5002630;28;22050;-64
2022/05/03 00:17:32;;;;;;;33.70;23.17;;;;;;;;;;5000041;28;20558;-64
2022/05/03 00:19:58;;;;;;;35.53;23.15;;;;;;;;;;5002070;28;20033;-64
2022/05/03 00:22:23;;;;;;;36.17;22.70;;;;;;;;;;5000379;28;20024;-64
2022/05/03 00:24:54;;;;;;;35.50;23.88;;;;;;;;;;5002429;28;20347;-65
2022/05/03 00:27:23;;;;;;;34.13;22.65;;;;;;;;;;5002474;28;20021;-65
2022/05/03 00:29:48;;;;;;;36.10;23.80;;;;;;;;;;5005417;28;20025;-65
2022/05/03 00:32:14;;;;;;;38.05;23.77;;;;;;;;;;5005071;28;20273;-64
2022/05/03 00:34:39;;;;;;;34.03;22.60;;;;;;;;;;5000207;28;20040;-64
2022/05/03 00:37:08;;;;;;;36.72;23.40;;;;;;;;;;5006004;28;20041;-64
2022/05/03 00:39:34;;;;;;;37.45;24.13;;;;;;;;;;5001501;28;20470;-65
2022/05/03 00:42:06;;;;;;;32.88;21.25;;;;;;;;;;4999664;28;20102;-64
2022/05/03 00:44:58;;;;;;;33.70;22.10;;;;;;;;;;4998146;28;20039;-66
2022/05/03 00:47:33;;;;;;;33.03;21.48;;;;;;;;;;5000859;28;20028;-65
2022/05/03 00:49:59;;;;;;;30.95;21.13;;;;;;;;;;5001538;28;20148;-64
2022/05/03 00:52:28;;;;;;;33.67;23.00;;;;;;;;;;5001857;28;20486;-65
2022/05/03 00:54:56;;;;;;;32.20;21.92;;;;;;;;;;5001300;28;20159;-64
2022/05/03 00:57:40;;;;;;;32.17;22.35;;;;;;;;;;5001400;28;20272;-66
2022/05/03 01:00:10;;;;;;;33.00;20.90;;;;;;;;;;5001354;28;20521;-64
2022/05/03 01:02:49;;;;;;;28.80;20.02;;;;;;;;;;4999197;28;20029;-64
2022/05/03 01:05:20;;;;;;;32.28;20.92;;;;;;;;;;5001531;28;20036;-64
2022/05/03 01:08:05;;;;;;;33.28;21.40;;;;;;;;;;4997625;28;20365;-64
2022/05/03 01:10:35;;;;;;;34.63;21.83;;;;;;;;;;5000799;28;20032;-65
2022/05/03 01:13:06;;;;;;;34.78;21.73;;;;;;;;;;5001296;28;20028;-64
2022/05/03 01:15:33;;;;;;;34.05;22.42;;;;;;;;;;5001939;28;20029;-64
2022/05/03 01:18:08;;;;;;;33.97;22.88;;;;;;;;;;5000298;28;20032;-64
2022/05/03 01:20:40;;;;;;;35.00;22.85;;;;;;;;;;4999952;28;20043;-64
2022/05/03 01:23:06;;;;;;;;;;;;;;;;;;5001815;28;20222;-64
2022/05/03 01:25:43;;;;;;;33.50;21.48;;;;;;;;;;5001092;28;20294;-65
2022/05/03 01:28:27;;;;;;;38.60;23.77;;;;;;;;;;4998943;28;20028;-65
2022/05/03 01:30:56;;;;;;;38.80;24.45;;;;;;;;;;5000684;28;20040;-65
2022/05/03 01:33:40;;;;;;;36.28;23.40;;;;;;;;;;5001761;28;20142;-65
2022/05/03 01:36:06;;;;;;;35.42;23.40;;;;;;;;;;4998725;28;20385;-64
2022/05/03 01:38:51;;;;;;;36.72;23.35;;;;;;;;;;5001142;28;20056;-64
2022/05/03 01:41:29;;;;;;;34.25;22.88;;;;;;;;;;4999579;28;20496;-64
2022/05/03 01:44:14;;;;;;;37.10;24.02;;;;;;;;;;4998655;28;20021;-65
2022/05/03 01:46:40;;;;;;;38.13;23.33;;;;;;;;;;5000785;28;20033;-64
2022/05/03 01:52:11;;;;;;;36.90;24.80;;;;;;;;;;5000349;28;20231;-64
2022/05/03 01:54:39;;;;;;;38.47;25.02;;;;;;;;;;5000892;28;20091;-64
2022/05/03 01:57:24;;;;;;;36.15;24.20;;;;;;;;;;5003420;28;20410;-64
2022/05/03 01:59:57;;;;;;;36.40;24.30;;;;;;;;;;5003016;28;20580;-64
2022/05/03 02:02:27;;;;;;;38.05;24.50;;;;;;;;;;5003348;28;20040;-64
2022/05/03 02:04:54;;;;;;;43.65;26.85;;;;;;;;;;5003088;28;20219;-64
2022/05/03 02:07:19;;;;;;;41.78;26.13;;;;;;;;;;5004143;28;20120;-63
2022/05/03 02:09:45;;;;;;;42.17;26.45;;;;;;;;;;5002093;28;20567;-63
2022/05/03 02:12:14;;;;;;;41.15;26.55;;;;;;;;;;5004592;28;20379;-64
2022/05/03 02:14:48;;;;;;;40.67;25.75;;;;;;;;;;5004385;28;20033;-64
2022/05/03 02:17:32;;;;;;;44.10;27.13;;;;;;;;;;5003948;28;20055;-63
2022/05/03 02:19:58;;;;;;;45.38;28.58;;;;;;;;;;5003485;28;20026;-64
2022/05/03 02:22:23;;;;;;;45.75;27.23;;;;;;;;;;5001593;28;20025;-64
2022/05/03 02:25:04;;;;;;;43.88;26.92;;;;;;;;;;5006346;28;20479;-64
2022/05/03 02:27:34;;;;;;;44.40;27.65;;;;;;;;;;5004283;28;20258;-64
2022/05/03 02:30:00;;;;;;;53.85;31.38;;;;;;;;;;5003772;28;20057;-64
2022/05/03 02:32:41;;;;;;;51.92;31.92;;;;;;;;;;5003671;28;20160;-65
2022/05/03 02:35:11;;;;;;;59.70;33.30;;;;;;;;;;5002745;28;20143;-64
2022/05/03 02:37:49;;;;;;;51.97;32.13;;;;;;;;;;5003693;28;21891;-63
2022/05/03 02:40:24;;;;;;;51.08;31.02;;;;;;;;;;5003175;28;20041;-65
2022/05/03 02:42:51;;;;;;;47.75;30.45;;;;;;;;;;5004116;28;20136;-65
2022/05/03 02:45:17;;;;;;;53.53;32.92;;;;;;;;;;5003201;28;20115;-64
2022/05/03 02:47:42;;;;;;;53.67;31.98;;;;;;;;;;5003569;28;20051;-63
2022/05/03 02:50:30;;;;;;;56.97;32.60;;;;;;;;;;5001730;28;20033;-65
2022/05/03 02:53:05;;;;;;;53.50;31.55;;;;;;;;;;5003094;28;20087;-64
2022/05/03 02:55:42;;;;;;;53.83;32.40;;;;;;;;;;5002803;28;20265;-64
2022/05/03 02:58:26;;;;;;;54.60;31.92;;;;;;;;;;5002978;28;20029;-65
2022/05/03 03:03:39;;;;;;;53.58;31.50;;;;;;;;;;5003346;28;20055;-65
2022/05/03 03:06:05;;;;;;;52.50;31.80;;;;;;;;;;5002955;28;20025;-65
2022/05/03 03:08:42;;;;;;;54.60;34.00;;;;;;;;;;5001751;28;20076;-64
2022/05/03 03:11:10;;;;;;;59.10;33.55;;;;;;;;;;5003602;28;20028;-65
2022/05/03 03:13:56;;;;;;;57.97;33.53;;;;;;;;;;5003262;28;20289;-64
2022/05/03 03:16:32;;;;;;;57.72;34.30;;;;;;;;;;4994251;28;20045;-64
2022/05/03 03:18:58;;;;;;;57.35;33.17;;;;;;;;;;5003114;28;20800;-64
2022/05/03 03:21:27;;;;;;;61.75;34.90;;;;;;;;;;5002245;28;20224;-64
2022/05/03 03:23:54;;;;;;;60.17;34.72;;;;;;;;;;5002288;28;20071;-64
2022/05/03 03:26:22;;;;;;;63.60;36.35;;;;;;;;;;5002138;28;20340;-64
2022/05/03 03:28:49;;;;;;;66.10;37.88;;;;;;;;;;5000487;28;20030;-65
2022/05/03 03:31:15;;;;;;;60.67;36.72;;;;;;;;;;5002050;28;20043;-64
2022/05/03 03:33:41;;;;;;;67.10;39.22;;;;;;;;;;5003033;28;20032;-64
2022/05/03 03:36:07;;;;;;;68.68;39.13;;;;;;;;;;5002140;28;20175;-65
2022/05/03 03:38:37;;;;;;;70.65;41.20;;;;;;;;;;5002403;28;20052;-64
2022/05/03 03:41:03;;;;;;;67.95;40.60;;;;;;;;;;5002183;28;20037;-64
2022/05/03 03:43:29;;;;;;;75.55;45.20;;;;;;;;;;5002957;28;20025;-65
2022/05/03 03:45:54;;;;;;;79.82;45.47;;;;;;;;;;5002238;28;20485;-65
2022/05/03 03:48:20;;;;;;;76.35;45.65;;;;;;;;;;5002377;28;20382;-64
2022/05/03 03:50:47;;;;;;;78.72;47.88;;;;;;;;;;5002349;28;20079;-65
2022/05/03 03:53:13;;;;;;;93.55;54.47;;;;;;;;;;5002379;28;20515;-65
2022/05/03 03:55:39;;;;;;;91.25;50.72;;;;;;;;;;5002280;28;20160;-64
2022/05/03 03:58:07;;;;;;;91.65;53.92;;;;;;;;;;5002996;28;20029;-65
2022/05/03 04:00:32;;;;;;;97.50;55.75;;;;;;;;;;5017323;28;20048;-65
2022/05/03 04:02:58;;;;;;;97.00;57.33;;;;;;;;;;5001317;28;20040;-65
2022/05/03 04:05:24;;;;;;;88.82;53.30;;;;;;;;;;5000338;28;20040;-64
2022/05/03 04:07:51;;;;;;;99.38;57.95;;;;;;;;;;5001872;28;20103;-66
2022/05/03 04:10:16;;;;;;;85.10;50.90;;;;;;;;;;4999834;28;20446;-65
2022/05/03 04:12:44;;;;;;;89.65;48.67;;;;;;;;;;5002245;28;20561;-64
2022/05/03 04:15:10;;;;;;;87.43;52.25;;;;;;;;;;5001852;28;20453;-65
2022/05/03 04:17:35;;;;;;;90.63;51.58;;;;;;;;;;5001675;28;20091;-64
2022/05/03 04:20:01;;;;;;;82.50;50.30;;;;;;;;;;5001471;28;20056;-65
2022/05/03 04:22:28;;;;;;;89.03;52.13;;;;;;;;;;5001734;28;20029;-65
2022/05/03 04:24:53;;;;;;;96.38;54.75;;;;;;;;;;5001657;28;20109;-67
2022/05/03 04:27:21;;;;;;;88.00;49.72;;;;;;;;;;5001912;28;20052;-65
2022/05/03 04:29:50;;;;;;;90.53;49.72;;;;;;;;;;5004679;28;20612;-65
2022/05/03 04:32:16;;;;;;;88.80;47.25;;;;;;;;;;5001424;28;20036;-64
2022/05/03 04:34:41;;;;;;;94.20;48.40;;;;;;;;;;4999300;28;20033;-64
2022/05/03 04:37:07;;;;;;;93.93;47.75;;;;;;;;;;4983059;28;21925;-65
2022/05/03 04:39:32;;;;;;;97.93;48.85;;;;;;;;;;5001257;28;20549;-64
2022/05/03 04:41:58;;;;;;;93.13;48.67;;;;;;;;;;5000960;28;20468;-65
2022/05/03 04:44:23;;;;;;;89.05;45.17;;;;;;;;;;5001582;28;20301;-65
2022/05/03 04:46:48;;;;;;;93.13;46.95;;;;;;;;;;4999538;28;20037;-65
2022/05/03 04:49:16;;;;;;;95.38;48.20;;;;;;;;;;5001609;28;20372;-65
2022/05/03 04:51:43;;;;;;;92.93;46.28;;;;;;;;;;5001221;28;20025;-65
2022/05/03 04:54:09;;;;;;;91.57;47.70;;;;;;;;;;5002052;28;20103;-65
2022/05/03 04:56:35;;;;;;;99.35;49.03;;;;;;;;;;4983253;28;20025;-65
2022/05/03 04:59:01;;;;;;;97.50;51.00;;;;;;;;;;5002217;28;20562;-65
2022/05/03 05:01:27;;;;;;;99.53;49.30;;;;;;;;;;5000812;28;20529;-66
2022/05/03 05:03:52;;;;;;;96.90;48.47;;;;;;;;;;5000403;28;20423;-65
2022/05/03 05:06:20;;;;;;;110.72;51.55;;;;;;;;;;4999651;28;20352;-65
2022/05/03 05:08:46;;;;;;;111.35;51.08;;;;;;;;;;5001752;28;20071;-65
2022/05/03 05:11:14;;;;;;;118.82;51.03;;;;;;;;;;5001779;28;20037;-64
2022/05/03 05:13:39;;;;;;;111.32;50.03;;;;;;;;;;5000632;28;20115;-66
2022/05/03 05:16:08;;;;;;;104.13;48.70;;;;;;;;;;5001382;28;20029;-65
2022/05/03 05:18:33;;;;;;;112.43;50.22;;;;;;;;;;5001301;28;20060;-65
2022/05/03 05:20:59;;;;;;;108.97;49.30;;;;;;;;;;5000583;28;20596;-65
2022/05/03 05:23:24;;;;;;;113.07;48.67;;;;;;;;;;4999898;28;20384;-65
2022/05/03 05:25:50;;;;;;;110.30;48.88;;;;;;;;;;5015074;28;20030;-65
2022/05/03 05:28:18;;;;;;;108.07;49.20;;;;;;;;;;5001455;28;20021;-65
2022/05/03 05:30:46;;;;;;;113.80;49.50;;;;;;;;;;5002407;28;20295;-65
2022/05/03 05:33:14;;;;;;;113.13;51.65;;;;;;;;;;5005708;28;21697;-64
2022/05/03 05:35:41;;;;;;;114.03;51.85;;;;;;;;;;5004155;28;20110;-65
2022/05/03 05:38:07;;;;;;;123.20;52.45;;;;;;;;;;5005058;28;20471;-65
2022/05/03 05:40:33;;;;;;;123.15;53.20;;;;;;;;;;5008458;28;20127;-65
2022/05/03 05:43:01;;;;;;;128.75;54.70;;;;;;;;;;5008503;28;20084;-66
2022/05/03 05:45:27;;;;;;;140.10;56.80;;;;;;;;;;5004197;28;20080;-66
2022/05/03 05:47:52;;;;;;;131.98;56.85;;;;;;;;;;5008219;28;20045;-66
2022/05/03 05:50:22;;;;;;;132.77;57.75;;;;;;;;;;5004597;28;20032;-65
2022/05/03 05:55:31;;;;;;;126.85;53.85;;;;;;;;;;5003848;28;20033;-65
2022/05/03 05:57:56;;;;;;;122.65;52.63;;;;;;;;;;5002154;28;20398;-65
2022/05/03 06:00:24;;;;;;;124.75;52.92;;;;;;;;;;5004986;28;20635;-65
2022/05/03 06:02:50;;;;;;;120.93;54.92;;;;;;;;;;5003914;28;20144;-66
2022/05/03 06:05:15;;;;;;;117.97;52.08;;;;;;;;;;5003595;28;20027;-66
2022/05/03 06:07:41;;;;;;;127.05;55.53;;;;;;;;;;5002925;28;21257;-65
2022/05/03 06:10:07;;;;;;;113.05;54.15;;;;;;;;;;5004189;28;20056;-68
2022/05/03 06:12:32;;;;;;;108.45;49.60;;;;;;;;;;5004708;28;21746;-65
2022/05/03 06:14:57;;;;;;;106.60;50.55;;;;;;;;;;5001665;28;20253;-65
2022/05/03 06:17:22;;;;;;;113.10;50.30;;;;;;;;;;5003627;28;20309;-65
2022/05/03 06:19:48;;;;;;;109.15;51.08;;;;;;;;;;5003967;28;20469;-65
2022/05/03 06:22:13;;;;;;;106.10;50.08;;;;;;;;;;5003960;28;20193;-65
2022/05/03 06:24:39;;;;;;;106.40;48.47;;;;;;;;;;5019266;28;20108;-65
2022/05/03 06:27:05;;;;;;;105.65;49.83;;;;;;;;;;5003847;28;20569;-65
2022/05/03 06:29:32;;;;;;;99.40;48.40;;;;;;;;;;5006101;28;21614;-67
2022/05/03 06:31:59;;;;;;;100.72;49.05;;;;;;;;;;5004117;28;20285;-65
2022/05/03 06:34:25;;;;;;;94.47;47.10;;;;;;;;;;5003186;28;20361;-65
2022/05/03 06:36:50;;;;;;;95.10;47.10;;;;;;;;;;5001140;28;20033;-64
2022/05/03 06:39:15;;;;;;;87.30;45.30;;;;;;;;;;5001641;28;20053;-65
2022/05/03 06:41:40;;;;;;;81.68;42.67;;;;;;;;;;5003050;28;20044;-64
2022/05/03 06:44:06;;;;;;;79.40;41.35;;;;;;;;;;5001231;28;20041;-67
2022/05/03 06:46:31;;;;;;;81.25;42.58;;;;;;;;;;5001166;28;20584;-64
2022/05/03 06:48:56;;;;;;;81.82;42.05;;;;;;;;;;4985289;28;20033;-65
2022/05/03 06:51:21;;;;;;;80.60;41.28;;;;;;;;;;5000387;28;20163;-68
2022/05/03 06:53:47;;;;;;;80.88;42.83;;;;;;;;;;5003334;28;20684;-65
2022/05/03 06:56:13;;;;;;;89.63;45.90;;;;;;;;;;5004505;28;20095;-65
2022/05/03 06:58:39;;;;;;;95.32;46.25;;;;;;;;;;5003310;28;20048;-65
2022/05/03 07:01:09;;;;;;;91.03;44.55;;;;;;;;;;5003176;28;20089;-65
2022/05/03 07:03:34;;;;;;;91.50;44.92;;;;;;;;;;5000380;28;20017;-67
2022/05/03 07:06:00;;;;;;;89.78;43.92;;;;;;;;;;5003363;28;20075;-67
2022/05/03 07:08:25;;;;;;;78.72;39.65;;;;;;;;;;5012648;28;20033;-66
2022/05/03 07:10:53;;;;;;;74.38;39.33;;;;;;;;;;5001331;28;20036;-67
2022/05/03 07:13:23;;;;;;;79.68;40.35;;;;;;;;;;5002237;28;22242;-66
2022/05/03 07:15:49;;;;;;;82.30;41.38;;;;;;;;;;5017726;28;20119;-65
2022/05/03 07:23:42;;;;;;;85.15;40.85;;;;;;;;;;5003277;28;20104;-64
2022/05/03 07:26:07;;;;;;;89.65;43.33;;;;;;;;;;5002945;28;20118;-65
2022/05/03 07:28:34;;;;;;;93.43;44.25;;;;;;;;;;5002651;28;20266;-64
2022/05/03 07:31:00;;;;;;;93.75;43.17;;;;;;;;;;5002510;28;20287;-64
2022/05/03 07:33:26;;;;;;;93.95;42.10;;;;;;;;;;5002036;28;20033;-64
2022/05/03 07:35:51;;;;;;;98.95;45.67;;;;;;;;;;4999227;28;20858;-63
2022/05/03 07:38:16;;;;;;;93.97;43.88;;;;;;;;;;5001195;28;20752;-64
2022/05/03 07:40:42;;;;;;;97.32;43.30;;;;;;;;;;5002534;28;20185;-65
2022/05/03 07:43:07;;;;;;;106.47;44.80;;;;;;;;;;5003783;28;20462;-62
2022/05/03 07:45:32;;;;;;;107.43;45.17;;;;;;;;;;5002517;28;20037;-64
2022/05/03 07:47:58;;;;;;;99.13;43.45;;;;;;;;;;5001640;28;20106;-63
2022/05/03 07:50:23;;;;;;;97.93;42.10;;;;;;;;;;5002308;28;20135;-65
2022/05/03 07:52:49;;;;;;;101.97;44.22;;;;;;;;;;5001045;28;20481;-65
2022/05/03 07:55:14;;;;;;;103.93;44.80;;;;;;;;;;5000743;28;20033;-64
2022/05/03 07:57:40;;;;;;;98.60;43.75;;;;;;;;;;4983808;28;20094;-64
2022/05/03 08:00:05;;;;;;;98.00;43.90;;;;;;;;;;4996907;28;20155;-63
2022/05/03 08:02:31;;;;;;;98.65;44.05;;;;;;;;;;5001404;28;20741;-63
2022/05/03 08:04:57;;;;;;;100.90;45.22;;;;;;;;;;5001008;28;20021;-64
2022/05/03 08:07:22;;;;;;;92.85;39.17;;;;;;;;;;4998822;28;20363;-64
2022/05/03 08:09:48;;;;;;;43.33;24.45;;;;;;;;;;5001491;28;20753;-65
2022/05/03 08:12:14;;;;;;;36.63;20.70;;;;;;;;;;4998226;28;20108;-64
2022/05/03 08:14:40;;;;;;;35.38;19.38;;;;;;;;;;4999694;28;20029;-65
2022/05/03 08:17:06;;;;;;;29.67;18.05;;;;;;;;;;5000009;28;20066;-65
2022/05/03 08:19:34;;;;;;;23.75;15.10;;;;;;;;;;4999884;28;20111;-64
2022/05/03 08:22:00;;;;;;;24.85;15.43;;;;;;;;;;5001016;28;20099;-65
2022/05/03 08:24:25;;;;;;;20.83;13.95;;;;;;;;;;5002275;28;20063;-63
2022/05/03 08:26:51;;;;;;;18.70;13.48;;;;;;;;;;5001078;28;20112;-64
2022/05/03 08:29:19;;;;;;;18.92;13.27;;;;;;;;;;5001314;28;20129;-64
2022/05/03 08:31:44;;;;;;;19.20;11.50;;;;;;;;;;4999807;28;21104;-64
2022/05/03 08:34:10;;;;;;;15.52;10.35;;;;;;;;;;5000401;28;20032;-65
2022/05/03 08:36:35;;;;;;;17.30;10.95;;;;;;;;;;4998769;28;20619;-64
2022/05/03 08:42:06;;;;;;;15.57;10.52;;;;;;;;;;5001993;28;20043;-65
2022/05/03 08:44:31;;;;;;;18.35;10.23;;;;;;;;;;5001422;28;20104;-65
2022/05/03 08:47:00;;;;;;;15.30;10.25;;;;;;;;;;5002165;28;20100;-64
2022/05/03 08:49:44;;;;;;;18.45;10.43;;;;;;;;;;5000165;28;20040;-65
2022/05/03 08:52:09;;;;;;;16.45;9.63;;;;;;;;;;5001175;28;20452;-64
2022/05/03 08:54:36;;;;;;;14.00;9.43;;;;;;;;;;5002163;28;20489;-65
2022/05/03 08:57:05;;;;;;;15.18;9.43;;;;;;;;;;4998436;28;20443;-64
2022/05/03 08:59:31;;;;;;;15.73;9.73;;;;;;;;;;4999737;28;20517;-65
2022/05/03 09:01:57;;;;;;;18.05;9.70;;;;;;;;;;5001494;28;20033;-65
2022/05/03 09:04:23;;;;;;;16.98;9.65;;;;;;;;;;4999003;28;20040;-64
2022/05/03 09:06:50;;;;;;;15.93;9.70;;;;;;;;;;4999410;28;20372;-64
2022/05/03 09:09:16;;;;;;;13.95;9.90;;;;;;;;;;4998940;28;20208;-64
2022/05/03 09:11:45;;;;;;;14.43;10.07;;;;;;;;;;4997206;28;20087;-64
2022/05/03 09:14:11;;;;;;;16.60;9.38;;;;;;;;;;5001240;28;20060;-64
2022/05/03 09:16:46;;;;;;;15.45;9.55;;;;;;;;;;4997495;28;20355;-65
2022/05/03 09:19:21;;;;;;;13.43;9.00;;;;;;;;;;5001453;28;20056;-65
2022/05/03 09:24:49;;;;;;;11.65;8.30;;;;;;;;;;5000844;28;20206;-66
2022/05/03 09:27:18;;;;;;;15.63;8.98;;;;;;;;;;4998406;28;20532;-65
2022/05/03 09:30:05;;;;;;;13.90;9.00;;;;;;;;;;4998500;28;20021;-64
2022/05/03 09:32:37;;;;;;;12.60;7.93;;;;;;;;;;4998688;28;20128;-64
2022/05/03 09:35:03;;;;;;;13.65;8.65;;;;;;;;;;4998806;28;20017;-65
2022/05/03 09:37:39;;;;;;;14.82;8.10;;;;;;;;;;4999452;28;20075;-64
2022/05/03 09:40:05;;;;;;;13.05;8.18;;;;;;;;;;4998287;28;20048;-65
2022/05/03 09:42:30;;;;;;;13.32;8.20;;;;;;;;;;5001217;28;20037;-65
2022/05/03 09:45:02;;;;;;;13.48;7.80;;;;;;;;;;5000743;28;20489;-64
2022/05/03 09:47:34;;;;;;;11.70;7.50;;;;;;;;;;5000005;28;20178;-63
2022/05/03 09:49:59;;;;;;;;;;;;;;;;;;4997185;28;20218;-65
2022/05/03 09:52:29;;;;;;;13.10;7.53;;;;;;;;;;4999146;28;19916;-64
2022/05/03 09:54:59;;;;;;;13.18;7.20;;;;;;;;;;4997554;28;20128;-65
2022/05/03 09:57:25;;;;;;;16.10;7.35;;;;;;;;;;5000866;28;20033;-66
2022/05/03 09:59:51;;;;;;;14.27;7.65;;;;;;;;;;5001124;28;20037;-66
2022/05/03 10:02:19;;;;;;;11.82;7.55;;;;;;;;;;4995814;28;20332;-64
2022/05/03 10:04:47;;;;;;;13.82;7.35;;;;;;;;;;4999992;28;20099;-65
2022/05/03 10:07:13;;;;;;;17.50;7.90;;;;;;;;;;4999164;28;20017;-65
2022/05/03 10:09:39;;;;;;;14.57;8.00;;;;;;;;;;5001419;28;20470;-65
2022/05/03 10:12:05;;;;;;;14.27;7.43;;;;;;;;;;4997765;28;20213;-66
2022/05/03 10:14:30;;;;;;;14.05;7.63;;;;;;;;;;4996429;28;20102;-66
2022/05/03 10:22:44;;;;;;;16.40;7.60;;;;;;;;;;4994920;28;20037;-64
2022/05/03 10:25:12;;;;;;;12.45;7.57;;;;;;;;;;4999448;28;20039;-64
2022/05/03 10:27:57;;;;;;;16.90;8.10;;;;;;;;;;5002701;28;20041;-64
2022/05/03 10:30:23;;;;;;;20.30;7.43;;;;;;;;;;5000766;28;20625;-64
2022/05/03 10:33:11;;;;;;;16.33;7.57;;;;;;;;;;5004265;28;20021;-67
2022/05/03 10:35:38;;;;;;;16.13;7.25;;;;;;;;;;5001169;28;20088;-67
2022/05/03 10:38:05;;;;;;;15.35;7.38;;;;;;;;;;5001506;28;20032;-65
2022/05/03 10:40:31;;;;;;;17.88;7.63;;;;;;;;;;5002035;28;20052;-63
2022/05/03 10:43:04;;;;;;;12.73;7.22;;;;;;;;;;5000809;28;20076;-64
2022/05/03 10:45:30;;;;;;;14.98;8.25;;;;;;;;;;5002816;28;20067;-63
2022/05/03 10:47:55;;;;;;;16.17;7.47;;;;;;;;;;4999907;28;20477;-66
2022/05/03 10:50:21;;;;;;;22.10;7.88;;;;;;;;;;5012090;28;20166;-67
2022/05/03 10:52:55;;;;;;;19.60;7.35;;;;;;;;;;5001253;28;20040;-63
2022/05/03 10:55:22;;;;;;;18.67;7.78;;;;;;;;;;5003725;28;20035;-64
2022/05/03 10:58:06;;;;;;;18.35;7.35;;;;;;;;;;5001914;28;20083;-64
2022/05/03 11:00:50;;;;;;;17.60;7.40;;;;;;;;;;5003321;28;20112;-65
2022/05/03 11:03:19;;;;;;;18.75;7.70;;;;;;;;;;5002340;28;20025;-64
2022/05/03 11:06:04;;;;;;;18.00;7.25;;;;;;;;;;5001911;28;20029;-66
2022/05/03 11:08:32;;;;;;;13.52;7.28;;;;;;;;;;5005199;28;20159;-64
2022/05/03 11:10:57;;;;;;;14.35;7.45;;;;;;;;;;5002525;28;20108;-63
2022/05/03 11:13:36;;;;;;;22.33;7.65;;;;;;;;;;4998288;28;20033;-65
2022/05/03 11:16:37;;;;;;;19.75;7.95;;;;;;;;;;5002989;28;20121;-65
2022/05/03 11:19:08;;;;;;;16.17;7.18;;;;;;;;;;4925136;28;20677;-65
2022/05/03 11:21:34;;;;;;;16.02;7.38;;;;;;;;;;4989724;28;20132;-66
2022/05/03 11:24:01;;;;;;;13.75;7.38;;;;;;;;;;5003081;28;20048;-64
2022/05/03 11:26:26;;;;;;;19.02;7.10;;;;;;;;;;5000235;28;20427;-66
2022/05/03 11:28:58;;;;;;;16.02;7.43;;;;;;;;;;5000131;28;20036;-66
2022/05/03 11:31:25;;;;;;;17.05;7.50;;;;;;;;;;4984406;28;20028;-64
2022/05/03 11:33:58;;;;;;;16.90;7.07;;;;;;;;;;5002510;28;20037;-65
2022/05/03 11:36:24;;;;;;;15.73;6.00;;;;;;;;;;4999888;28;20123;-65
2022/05/03 11:38:51;;;;;;;21.35;6.50;;;;;;;;;;5002023;28;20049;-65
2022/05/03 11:41:24;;;;;;;18.75;6.13;;;;;;;;;;4999975;28;21061;-65
2022/05/03 11:43:49;;;;;;;18.55;6.60;;;;;;;;;;5002135;28;20030;-64
2022/05/03 11:46:15;;;;;;;16.20;5.90;;;;;;;;;;5002719;28;20232;-66
2022/05/03 11:48:41;;;;;;;18.52;5.28;;;;;;;;;;5002056;28;20029;-65
2022/05/03 11:56:36;;;;;;;21.73;6.03;;;;;;;;;;5002730;28;20725;-65
2022/05/03 11:59:02;;;;;;;16.00;5.22;;;;;;;;;;5001569;28;20277;-66
2022/05/03 12:01:31;;;;;;;19.10;6.65;;;;;;;;;;4999510;28;20517;-66
2022/05/03 12:03:58;;;;;;;18.42;6.10;;;;;;;;;;4999844;28;20078;-64
2022/05/03 12:06:32;;;;;;;21.25;5.88;;;;;;;;;;5001386;28;20329;-65
2022/05/03 12:08:59;;;;;;;20.38;6.13;;;;;;;;;;5001296;28;20173;-65
2022/05/03 12:11:25;;;;;;;19.02;5.70;;;;;;;;;;5001370;28;20087;-63
2022/05/03 12:13:50;;;;;;;14.65;5.78;;;;;;;;;;5002532;28;20036;-64
2022/05/03 12:16:19;;;;;;;21.92;6.47;;;;;;;;;;4993275;28;20087;-63
2022/05/03 12:18:48;;;;;;;18.65;5.50;;;;;;;;;;4991838;28;20125;-65
2022/05/03 12:21:17;;;;;;;17.92;6.10;;;;;;;;;;5006345;28;20555;-64
2022/05/03 12:23:47;;;;;;;15.40;4.88;;;;;;;;;;4993901;28;20144;-64
2022/05/03 12:26:15;;;;;;;15.30;5.13;;;;;;;;;;4988921;28;20322;-64
2022/05/03 12:28:42;;;;;;;12.77;4.95;;;;;;;;;;4989697;28;20029;-63
2022/05/03 12:31:08;;;;;;;20.15;5.10;;;;;;;;;;4993330;28;20041;-63
2022/05/03 12:33:39;;;;;;;15.45;5.18;;;;;;;;;;4991812;28;20029;-63
2022/05/03 12:36:05;;;;;;;24.08;5.93;;;;;;;;;;4994854;28;20415;-64
2022/05/03 12:38:31;;;;;;;21.45;5.75;;;;;;;;;;4994803;28;20055;-65
2022/05/03 12:40:58;;;;;;;21.35;5.45;;;;;;;;;;4991376;28;20125;-65
2022/05/03 12:43:27;;;;;;;13.07;5.13;;;;;;;;;;4993951;28;21923;-66
2022/05/03 12:45:59;;;;;;;15.50;5.20;;;;;;;;;;4991154;28;20411;-65
2022/05/03 12:48:25;;;;;;;21.23;5.63;;;;;;;;;;4993354;28;20049;-65
2022/05/03 12:50:51;;;;;;;14.93;5.10;;;;;;;;;;4994537;28;20910;-65
2022/05/03 12:53:22;;;;;;;18.75;5.25;;;;;;;;;;4990475;28;20086;-65
2022/05/03 12:55:47;;;;;;;17.38;5.40;;;;;;;;;;4991512;28;20033;-66
2022/05/03 12:58:24;;;;;;;16.08;5.47;;;;;;;;;;4995899;28;20118;-66
2022/05/03 13:00:53;;;;;;;18.30;5.90;;;;;;;;;;4992473;28;20532;-66
2022/05/03 13:03:19;;;;;;;19.50;5.53;;;;;;;;;;4994358;28;20425;-66
2022/05/03 13:05:45;;;;;;;17.48;5.63;;;;;;;;;;4992735;28;20694;-65
2022/05/03 13:08:11;;;;;;;19.33;5.40;;;;;;;;;;4993715;28;20041;-65
2022/05/03 13:10:37;;;;;;;18.10;5.47;;;;;;;;;;4994103;28;20110;-66
2022/05/03 13:13:03;;;;;;;13.00;4.82;;;;;;;;;;4992613;28;20561;-65
2022/05/03 13:15:29;;;;;;;13.73;5.47;;;;;;;;;;4993786;28;20068;-65
2022/05/03 13:17:54;;;;;;;14.93;4.55;;;;;;;;;;5007227;28;20686;-64
2022/05/03 13:20:20;;;;;;;12.38;4.20;;;;;;;;;;4992409;28;20209;-65
2022/05/03 13:22:46;;;;;;;18.42;5.32;;;;;;;;;;5002008;28;20136;-65
2022/05/03 13:25:11;;;;;;;16.80;4.57;;;;;;;;;;4995169;28;20033;-64
2022/05/03 13:27:36;;;;;;;16.35;4.15;;;;;;;;;;4994098;28;20547;-65
2022/05/03 13:30:01;;;;;;;14.07;4.22;;;;;;;;;;4994063;28;20044;-66
2022/05/03 13:32:28;;;;;;;14.30;4.65;;;;;;;;;;4991549;28;20589;-65
2022/05/03 13:34:54;;;;;;;14.63;4.43;;;;;;;;;;4992488;28;20088;-65
2022/05/03 13:42:48;;;;;;;14.52;4.18;;;;;;;;;;4994179;28;20137;-66
2022/05/03 13:45:14;;;;;;;13.63;4.45;;;;;;;;;;4993375;28;20028;-65
2022/05/03 13:47:39;;;;;;;13.05;4.00;;;;;;;;;;4993665;28;20054;-66
2022/05/03 13:50:07;;;;;;;18.02;3.55;;;;;;;;;;4991701;28;20037;-65
2022/05/03 13:52:36;;;;;;;19.17;4.20;;;;;;;;;;4994568;28;20286;-65
2022/05/03 13:55:02;;;;;;;26.17;4.28;;;;;;;;;;4997613;28;20163;-65
2022/05/03 13:57:31;;;;;;;20.00;4.10;;;;;;;;;;4995420;28;20030;-65
2022/05/03 13:59:57;;;;;;;16.95;4.32;;;;;;;;;;5007422;28;20059;-65
2022/05/03 14:02:22;;;;;;;23.30;4.13;;;;;;;;;;4995671;28;20249;-65
2022/05/03 14:04:47;;;;;;;16.52;4.10;;;;;;;;;;4997787;28;20041;-65
2022/05/03 14:07:13;;;;;;;18.00;3.88;;;;;;;;;;4995433;28;20084;-66
2022/05/03 14:09:38;;;;;;;18.17;3.78;;;;;;;;;;4997405;28;20041;-67
2022/05/03 14:12:07;;;;;;;10.65;3.40;;;;;;;;;;5012051;28;20033;-65
2022/05/03 14:14:32;;;;;;;22.63;3.72;;;;;;;;;;4997110;28;20564;-65
2022/05/03 14:16:58;;;;;;;15.73;3.50;;;;;;;;;;4995869;28;20044;-65
2022/05/03 14:19:23;;;;;;;19.20;3.80;;;;;;;;;;4996555;28;20114;-67
2022/05/03 14:21:51;;;;;;;17.90;3.58;;;;;;;;;;4999030;28;20158;-65
2022/05/03 14:24:17;;;;;;;23.65;4.18;;;;;;;;;;4997190;28;20091;-66
2022/05/03 14:26:42;;;;;;;17.33;3.78;;;;;;;;;;4996434;28;20879;-65
2022/05/03 14:29:07;;;;;;;21.08;4.15;;;;;;;;;;5003468;28;20037;-64
2022/05/03 14:31:36;;;;;;;14.75;3.72;;;;;;;;;;4996768;28;20033;-65
2022/05/03 14:34:01;;;;;;;16.52;3.80;;;;;;;;;;4996720;28;20759;-66
2022/05/03 14:36:31;;;;;;;18.85;3.88;;;;;;;;;;4993106;28;20433;-67
2022/05/03 14:38:56;;;;;;;18.42;3.97;;;;;;;;;;4977440;28;20744;-66
2022/05/03 14:41:22;;;;;;;15.82;3.60;;;;;;;;;;4996362;28;22008;-66
2022/05/03 14:43:47;;;;;;;19.40;4.20;;;;;;;;;;4996232;28;20067;-66
2022/05/03 14:46:12;;;;;;;14.30;3.80;;;;;;;;;;4994166;28;22208;-66
2022/05/03 14:48:40;;;;;;;19.10;4.35;;;;;;;;;;4996842;28;20574;-65
2022/05/03 14:51:08;;;;;;;14.90;3.17;;;;;;;;;;4996376;28;20070;-64
2022/05/03 14:53:36;;;;;;;19.25;3.42;;;;;;;;;;4996662;28;20086;-64
2022/05/03 15:04:16;;;;;;;20.58;3.55;;;;;;;;;;4995832;28;20072;-66
2022/05/03 15:06:41;;;;;;;15.82;3.42;;;;;;;;;;4994849;28;20060;-66
2022/05/03 15:09:10;;;;;;;17.80;3.28;;;;;;;;;;4991168;28;20033;-66
2022/05/03 15:11:35;;;;;;;20.92;3.65;;;;;;;;;;4987881;28;20064;-64